Flight Track Log - Related Links

Times and Time Zones

All times are in EDT time to prevent confusion due to time zone crossing. See the N330NB flight status page for this flight to view local times or setup timezone preferences in your user account.

Time Position Orientation Groundspeed Altitude Reporting Facility
EDT Latitude Longitude Course Direction KTS MPH feet Rate Location/Type
Tue 12:02:33 AM 45.4500 -73.7500 360° North 70 81 100  Level Montreal Center
Tue 12:03:59 AM 45.4500 -73.7500 65° Northeast 10 12 100 96 Level Montreal Center
Tue 12:05:00 AM 45.3537 -73.8031 205° Southwest  Level FlightAware Approximate
Tue 12:12:00 AM 44.6959 -74.1333 180° South  Level FlightAware Approximate
Tue 12:12:59 AM 45.4667 -73.7000 35° Northeast 150 173 1,100  Level Montreal Center
Tue 12:13:00 AM 44.5953 -74.1157 172° South  Level FlightAware Approximate
Tue 12:13:59 AM 45.5167 -73.6500 35° Northeast 230 265 3,300  Level Montreal Center
Tue 12:14:00 AM 44.4947 -74.0975 175° South  Level FlightAware Approximate
Tue 12:14:59 AM 45.5000 -73.5833 110° East 220 253 6,700  Level Montreal Center
Tue 12:15:00 AM 44.3935 -74.0863 175° South  Level FlightAware Approximate
Tue 12:15:59 AM 45.4333 -73.6000 190° South 250 288 9,600  Level Montreal Center
Tue 12:16:00 AM 44.2932 -74.0653 172° South  Level FlightAware Approximate
Tue 12:16:59 AM 45.3667 -73.6833 221° Southwest 300 345 12,000  Level Montreal Center
Tue 12:17:00 AM 44.1927 -74.0452 172° South  Level FlightAware Approximate
Tue 12:17:59 AM 45.2833 -73.7333 203° Southwest 340 391 14,700  Level Montreal Center
Tue 12:18:59 AM 45.1833 -73.7833 199° South 360 414 17,400 2,750 Climbing Montreal Center
Tue 12:19:59 AM 45.0833 -73.8333 199° South 380 437 20,200 2,500 Climbing Montreal Center
Tue 12:20:59 AM 44.9833 -73.8833 199° South 390 449 22,400 2,700 Climbing Montreal Center
Tue 12:21:59 AM 44.8667 -73.9167 191° South 390 449 25,600 2,800 Climbing Montreal Center
Tue 12:22:14 AM 44.8600 -73.9364 245° Southwest 402 463 25,900 1,816 Climbing Boston Center
Tue 12:23:15 AM 44.7553 -73.9778 196° South 402 463 27,900 1,866 Climbing Boston Center
Tue 12:24:13 AM 44.6569 -74.0158 195° South 407 468 29,600 1,627 Climbing Boston Center
Tue 12:25:13 AM 44.5417 -74.0625 196° South 412 474 31,100 1,550 Climbing Boston Center
Tue 12:26:13 AM 44.4283 -74.1117 197° South 425 489 32,700 1,500 Climbing Boston Center
Tue 12:27:13 AM 44.3006 -74.1544 193° South 430 495 34,100 1,400 Climbing Boston Center
Tue 12:28:13 AM 44.1853 -74.1975 195° South 436 502 35,500 950 Climbing Boston Center
Tue 12:29:13 AM 44.0700 -74.2461 197° South 436 502 36,000 200 Climbing Boston Center
Tue 12:30:13 AM 43.9528 -74.2886 195° South 436 502 35,900  Descending Boston Center
Tue 12:31:14 AM 43.8353 -74.3369 197° South 436 502 36,000 50 Climbing Boston Center
Tue 12:32:13 AM 43.7178 -74.3819 195° South 436 502 36,000  Level Boston Center
Tue 12:33:13 AM 43.5981 -74.4297 196° South 436 502 36,000 -50 Level Boston Center
Tue 12:34:13 AM 43.4806 -74.4717 195° South 436 502 35,900  Descending Boston Center
Tue 12:35:16 AM 43.3631 -74.5164 195° South 436 502 36,000 49 Climbing Boston Center
Tue 12:36:15 AM 43.2686 -74.5531 196° South 436 502 36,000 -51 Level Boston Center
Tue 12:37:13 AM 43.1428 -74.6028 196° South 436 502 35,900  Descending Boston Center
Tue 12:39:22 AM 42.8736 -74.7025 195° South 459 528 36,000 32 Climbing New York Center
Tue 12:40:23 AM 42.7536 -74.7461 195° South 459 528 36,000  Level New York Center
Tue 12:41:21 AM 42.6356 -74.7922 196° South 454 522 36,000 -500 Level New York Center
Tue 12:42:23 AM 42.5156 -74.8356 195° South 454 522 35,000 -2,650 Descending New York Center
Tue 12:43:21 AM 42.3933 -74.8783 194° South 454 522 30,700 -3,900 Descending New York Center
Tue 12:44:23 AM 42.2669 -74.9236 195° South 464 534 27,200 -2,902 Descending New York Center
Tue 12:45:23 AM 42.1633 -74.9731 199° South 453 521 24,800 -2,600 Descending New York Center
Tue 12:46:23 AM 42.0625 -75.0533 211° Southwest 436 502 22,000 -2,746 Descending New York Center
Tue 12:47:21 AM 41.9683 -75.1308 211° Southwest 416 479 19,400 -1,513 Descending New York Center
Tue 12:48:22 AM 41.8558 -75.1847 200° South 399 459 19,000 -198 Descending New York Center
Tue 12:49:22 AM 41.7492 -75.1997 186° South 412 474 19,000  Level New York Center
Tue 12:50:24 AM 41.6339 -75.2228 189° South 423 487 19,000  Level New York Center
Tue 12:51:23 AM 41.5081 -75.2447 187° South 424 488 19,000 -153 Level New York Center
Tue 12:52:22 AM 41.3925 -75.2675 188° South 424 488 18,700 -504 Descending New York Center
Tue 12:53:22 AM 41.2772 -75.2875 187° South 429 494 18,000 -541 Descending New York Center
Tue 12:54:24 AM 41.1725 -75.3053 187° South 429 494 17,600 -545 Descending New York Center
Tue 12:55:23 AM 41.0592 -75.3253 188° South 423 487 16,900 -655 Descending New York Center
Tue 12:56:23 AM 40.9458 -75.3450 187° South 417 480 16,300 -605 Descending New York Center
Tue 12:57:22 AM 40.8389 -75.3653 188° South 409 471 15,700 -700 Descending New York Center
Tue 12:58:23 AM 40.7214 -75.3847 187° South 399 459 14,900 -1,143 Descending New York Center
Tue 12:59:28 AM 40.6089 -75.4056 188° South 367 422 13,300 -1,694 Descending FAA TRACON SMA TRACON (SMA)
Tue 12:59:48 AM 40.5733 -75.4114 187° South 360 414 12,500 -2,100 Descending FAA TRACON SMA TRACON (SMA)
Tue 01:00:08 AM 40.5419 -75.4156 186° South 356 410 11,900 -1,800 Descending FAA TRACON SMA TRACON (SMA)
Tue 01:00:28 AM 40.5114 -75.4228 190° South 353 406 11,300 -2,100 Descending FAA TRACON SMA TRACON (SMA)
Tue 01:00:48 AM 40.4758 -75.4289 187° South 344 396 10,500 -1,756 Descending FAA TRACON SMA TRACON (SMA)
Tue 01:01:09 AM 40.4483 -75.4339 188° South 339 390 10,100 -750 Descending FAA TRACON SMA TRACON (SMA)
Tue 01:01:28 AM 40.4186 -75.4372 185° South 335 386 10,000 -150 Descending FAA TRACON SMA TRACON (SMA)
Tue 01:01:49 AM 40.3861 -75.4406 184° South 311 358 10,000  Level FAA TRACON SMA TRACON (SMA)
Tue 01:02:08 AM 40.3625 -75.4425 184° South 289 333 10,000 -316 Level FAA TRACON SMA TRACON (SMA)
Tue 01:02:27 AM 40.3375 -75.4461 186° South 266 306 9,800 -1,350 Descending FAA TRACON SMA TRACON (SMA)
Tue 01:02:48 AM 40.3089 -75.4506 187° South 268 308 9,100 -1,463 Descending FAA TRACON SMA TRACON (SMA)
Tue 01:03:08 AM 40.2892 -75.4517 182° South 268 308 8,800 -900 Descending FAA TRACON SMA TRACON (SMA)
Tue 01:03:28 AM 40.2589 -75.4578 189° South 266 306 8,500 -769 Descending FAA TRACON SMA TRACON (SMA)
Tue 01:03:47 AM 40.2350 -75.4600 184° South 267 307 8,300 -600 Descending FAA TRACON SMA TRACON (SMA)
Tue 01:04:08 AM 40.2153 -75.4608 182° South 267 307 8,100 -585 Descending FAA TRACON SMA TRACON (SMA)
Tue 01:04:28 AM 40.1894 -75.4658 188° South 268 308 7,900 -769 Descending FAA TRACON SMA TRACON (SMA)
Tue 01:04:47 AM 40.1614 -75.4703 187° South 266 306 7,600 -750 Descending FAA TRACON SMA TRACON (SMA)
Tue 01:05:08 AM 40.1392 -75.4733 186° South 263 303 7,400 -878 Descending FAA TRACON SMA TRACON (SMA)
Tue 01:05:28 AM 40.1122 -75.4772 186° South 257 296 7,000 -1,231 Descending FAA TRACON SMA TRACON (SMA)
Tue 01:05:47 AM 40.0903 -75.4794 184° South 254 292 6,600 -1,231 Descending FAA TRACON SMA TRACON (SMA)
Tue 01:06:07 AM 40.0694 -75.4828 187° South 249 287 6,200 -1,317 Descending FAA TRACON SMA TRACON (SMA)
Tue 01:06:28 AM 40.0494 -75.4858 187° South 242 278 5,700 -1,610 Descending FAA TRACON SMA TRACON (SMA)
Tue 01:06:48 AM 40.0256 -75.4914 190° South 238 274 5,100 -1,846 Descending FAA TRACON SMA TRACON (SMA)
Tue 01:07:07 AM 40.0069 -75.4850 165° South 235 270 4,500 -1,650 Descending FAA TRACON SMA TRACON (SMA)
Tue 01:07:28 AM 39.9847 -75.4775 166° South 244 281 4,000 -1,610 Descending FAA TRACON SMA TRACON (SMA)
Tue 01:07:48 AM 39.9611 -75.4667 161° South 239 275 3,400 -1,692 Descending FAA TRACON SMA TRACON (SMA)
Tue 01:08:07 AM 39.9422 -75.4583 161° South 234 269 2,900 -1,350 Descending FAA TRACON SMA TRACON (SMA)
Tue 01:08:28 AM 39.9189 -75.4469 159° South 233 268 2,500 -1,024 Descending FAA TRACON SMA TRACON (SMA)
Tue 01:08:48 AM 39.9019 -75.4408 165° South 214 246 2,200 -750 Descending FAA TRACON SMA TRACON (SMA)
Tue 01:09:08 AM 39.8847 -75.4339 163° South 205 236 2,000 -615 Descending FAA TRACON SMA TRACON (SMA)
Tue 01:09:27 AM 39.8656 -75.4264 163° South 192 221 1,800 -300 Descending FAA TRACON SMA TRACON (SMA)
Tue 01:09:48 AM 39.8522 -75.4161 149° Southeast 166 191 1,800 146 Level FAA TRACON SMA TRACON (SMA)
Tue 01:10:08 AM 39.8450 -75.4019 124° Southeast 164 189 1,900  Climbing FAA TRACON SMA TRACON (SMA)
Tue 01:10:27 AM 39.8408 -75.3825 106° East 142 163 1,800 -600 Descending FAA TRACON SMA TRACON (SMA)
Tue 01:10:48 AM 39.8428 -75.3667 81° East 141 162 1,500 -732 Descending FAA TRACON SMA TRACON (SMA)
Tue 01:11:08 AM 39.8456 -75.3531 75° East 141 162 1,300 -750 Descending FAA TRACON SMA TRACON (SMA)
Tue 01:11:28 AM 39.8489 -75.3347 77° East 124 143 1,000 -750 Descending FAA TRACON SMA TRACON (SMA)
Tue 01:11:48 AM 39.8514 -75.3222 75° East 118 136 800 -450 Descending FAA TRACON SMA TRACON (SMA)
Tue 01:12:08 AM 39.8536 -75.3106 76° East 115 132 700 -600 Descending FAA TRACON SMA TRACON (SMA)
Tue 01:12:28 AM 39.8569 -75.2944 75° East 114 131 400 -769 Descending FAA TRACON SMA TRACON (SMA)
Tue 01:12:47 AM 39.8594 -75.2822 75° East 114 131 200 -200 Descending FAA TRACON SMA TRACON (SMA)
Tue 01:13:28 AM 39.8594 -75.2822 339° North 114 131 200 5,766 Level FAA TRACON SMA TRACON (SMA)
Tue 01:15:21 AM 39.8747 -75.1797 79° East 121 139 15,000 5,074 Climbing New York Center
Tue 01:16:23 AM 39.8825 -75.1397 76° East 121 139 15,000  Level New York Center
Tue 01:17:21 AM 39.8853 -75.1236 77° East 121 139 15,000  Level New York Center
Tue 01:20:00 AM 39.8667 -75.2333 163° South  Level FlightAware Approximate
Tue 01:27:00 AM 39.8722 -75.2409 163° South  Level Estimated
Tue 01:28:00 AM 39.8722 -75.2409 163° South  Level Estimated
Tue 01:29:00 AM 39.8722 -75.2409 163° South  Level Estimated
Tue 01:30:00 AM 39.8722 -75.2409 163° South  Level Estimated
Tue 01:31:00 AM 39.8722 -75.2409 163° South  Level Estimated
Tue 01:32:00 AM 39.8722 -75.2409 163° South  Level Estimated

Login

Don't have an account? Register now (free) for customized features, flight alerts, and more!